Time;durP1;ratioP1;P1;durP2;ratioP2;P2;SDS_P1;SDS_P2;PMS_P1;PMS_P2;Temp;Humidity;BMP_temperature;BMP_pressure;BME280_temperature;BME280_humidity;BME280_pressure;Samples;Min_cycle;Max_cycle;Signal;HPM_P1;HPM_P2
2022/02/04 00:04:29;;;;;;;38.47;20.52;;;;;;;;;;5144378;27;20058;-62
2022/02/04 00:26:02;;;;;;;50.33;26.20;;;;;;;;;;5109983;28;20048;-62
2022/02/04 00:30:58;;;;;;;51.58;29.80;;;;;;;;;;5111961;28;20185;-61
2022/02/04 00:43:31;;;;;;;54.85;28.38;;;;;;;;;;5104556;28;20072;-61
2022/02/04 00:46:25;;;;;;;57.50;29.52;;;;;;;;;;5104100;28;20177;-61
2022/02/04 00:49:02;;;;;;;49.83;26.17;;;;;;;;;;5103543;28;20056;-63
2022/02/04 00:54:56;;;;;;;58.08;26.75;;;;;;;;;;5083361;28;20131;-63
2022/02/04 01:27:26;;;;;;;43.92;23.95;;;;;;;;;;5087106;27;20056;-63
2022/02/04 01:30:16;;;;;;;46.45;27.63;;;;;;;;;;5147747;27;20062;-62
2022/02/04 01:32:42;;;;;;;;;;;;;;;;;;5160836;27;20054;-61
2022/02/04 01:35:08;;;;;;;40.03;23.45;;;;;;;;;;5168211;27;20381;-61
2022/02/04 01:37:34;;;;;;;46.17;25.05;;;;;;;;;;5167238;27;20098;-62
2022/02/04 01:40:00;;;;;;;47.42;24.65;;;;;;;;;;5168129;27;20573;-62
2022/02/04 01:42:26;;;;;;;48.50;25.25;;;;;;;;;;5156035;27;20122;-62
2022/02/04 01:44:52;;;;;;;48.58;26.25;;;;;;;;;;5145694;27;20054;-63
2022/02/04 01:47:18;;;;;;;48.22;26.83;;;;;;;;;;5146731;27;20047;-62
2022/02/04 01:49:45;;;;;;;45.25;25.63;;;;;;;;;;5146767;27;20047;-61
2022/02/04 01:52:12;;;;;;;57.03;25.07;;;;;;;;;;5154843;27;20039;-61
2022/02/04 01:54:38;;;;;;;43.70;25.52;;;;;;;;;;5148549;27;21870;-61
2022/02/04 01:57:04;;;;;;;42.35;24.48;;;;;;;;;;5125815;28;20096;-61
2022/02/04 01:59:31;;;;;;;42.97;24.95;;;;;;;;;;5126070;28;20060;-61
2022/02/04 02:01:57;;;;;;;41.60;22.10;;;;;;;;;;5133612;27;20107;-61
2022/02/04 02:04:23;;;;;;;41.47;23.52;;;;;;;;;;5146542;27;20050;-61
2022/02/04 02:06:59;;;;;;;44.13;23.58;;;;;;;;;;5145956;27;20473;-62
2022/02/04 02:09:34;;;;;;;44.95;24.10;;;;;;;;;;5146291;27;20088;-61
2022/02/04 02:12:04;;;;;;;39.78;23.20;;;;;;;;;;5154891;27;20055;-61
2022/02/04 02:14:32;;;;;;;38.15;23.55;;;;;;;;;;5156289;27;20058;-61
2022/02/04 02:36:04;;;;;;;40.28;22.33;;;;;;;;;;5158630;27;20092;-61
2022/02/04 02:59:34;;;;;;;38.75;20.88;;;;;;;;;;5166250;27;20051;-61
2022/02/04 03:02:00;;;;;;;37.03;20.83;;;;;;;;;;5166134;27;20064;-61
2022/02/04 03:04:26;;;;;;;40.78;20.35;;;;;;;;;;5148829;27;20058;-62
2022/02/04 03:06:53;;;;;;;38.00;20.23;;;;;;;;;;5144908;27;20047;-62
2022/02/04 03:09:19;;;;;;;39.92;21.75;;;;;;;;;;5145289;27;20070;-61
2022/02/04 03:11:45;;;;;;;34.25;20.38;;;;;;;;;;5144947;27;20084;-62
2022/02/04 03:14:11;;;;;;;38.85;21.10;;;;;;;;;;5158767;27;20134;-61
2022/02/04 03:16:38;;;;;;;35.80;21.67;;;;;;;;;;5165883;27;20053;-61
2022/02/04 03:19:06;;;;;;;33.15;20.52;;;;;;;;;;5165942;27;20046;-61
2022/02/04 03:21:38;;;;;;;37.88;20.88;;;;;;;;;;5165476;27;20046;-61
2022/02/04 03:24:09;;;;;;;42.15;22.00;;;;;;;;;;5153462;27;20051;-61
2022/02/04 03:29:10;;;;;;;40.40;22.17;;;;;;;;;;5145572;28;20048;-61
2022/02/04 03:31:45;;;;;;;37.22;22.45;;;;;;;;;;5160738;27;20276;-62
2022/02/04 03:34:11;;;;;;;39.65;20.33;;;;;;;;;;5166206;27;20046;-61
2022/02/04 03:36:37;;;;;;;37.30;20.50;;;;;;;;;;5164091;27;20091;-61
2022/02/04 03:39:04;;;;;;;38.15;20.65;;;;;;;;;;5165414;27;20502;-61
2022/02/04 03:41:30;;;;;;;36.43;21.30;;;;;;;;;;5150546;27;20074;-62
2022/02/04 03:43:56;;;;;;;41.85;21.58;;;;;;;;;;5145246;28;20047;-61
2022/02/04 03:46:22;;;;;;;35.70;20.95;;;;;;;;;;5144959;28;20035;-62
2022/02/04 03:48:49;;;;;;;32.90;20.13;;;;;;;;;;5145090;28;20074;-61
2022/02/04 03:51:15;;;;;;;38.78;22.25;;;;;;;;;;5156506;27;20035;-61
2022/02/04 03:53:41;;;;;;;41.70;22.70;;;;;;;;;;5155027;27;20054;-61
2022/02/04 03:56:07;;;;;;;39.67;21.77;;;;;;;;;;5143524;28;20107;-62
2022/02/04 03:58:37;;;;;;;37.20;21.10;;;;;;;;;;5145231;28;20055;-61
2022/02/04 04:01:04;;;;;;;45.53;21.80;;;;;;;;;;5155098;27;20054;-61
2022/02/04 04:03:30;;;;;;;39.70;23.63;;;;;;;;;;5165530;27;20034;-61
2022/02/04 04:05:56;;;;;;;43.22;24.13;;;;;;;;;;5165013;27;20053;-61
2022/02/04 04:08:23;;;;;;;35.90;20.98;;;;;;;;;;5165073;27;20067;-61
2022/02/04 04:10:51;;;;;;;42.20;22.88;;;;;;;;;;5154690;27;20149;-61
2022/02/04 04:13:17;;;;;;;38.83;22.45;;;;;;;;;;5145816;27;20059;-61
2022/02/04 04:15:43;;;;;;;37.97;22.17;;;;;;;;;;5165250;27;20060;-61
2022/02/04 04:18:12;;;;;;;36.70;20.15;;;;;;;;;;5165436;27;20050;-61
2022/02/04 04:20:39;;;;;;;45.35;21.67;;;;;;;;;;5165247;27;20242;-61
2022/02/04 04:23:05;;;;;;;45.20;24.23;;;;;;;;;;5164822;27;20053;-61
2022/02/04 04:25:31;;;;;;;41.60;21.98;;;;;;;;;;5149914;27;20043;-61
2022/02/04 04:27:58;;;;;;;39.67;22.73;;;;;;;;;;5148280;27;20042;-61
2022/02/04 04:30:25;;;;;;;37.15;21.65;;;;;;;;;;5148542;27;20484;-61
2022/02/04 04:32:52;;;;;;;46.67;23.10;;;;;;;;;;5148314;27;20581;-61
2022/02/04 04:35:19;;;;;;;41.95;24.10;;;;;;;;;;5148148;27;20047;-61
2022/02/04 04:37:56;;;;;;;36.95;20.40;;;;;;;;;;5167229;27;20094;-62
2022/02/04 04:41:00;;;;;;;36.97;21.55;;;;;;;;;;5169414;27;20047;-61
2022/02/04 04:43:50;;;;;;;44.35;21.65;;;;;;;;;;5161906;27;20054;-61
2022/02/04 05:27:56;;;;;;;29.00;16.48;;;;;;;;;;5146751;27;20068;-61
2022/02/04 05:30:13;;;;;;;33.33;17.52;;;;;;;;;;5152059;27;20043;-61
2022/02/04 05:32:39;;;;;;;25.95;15.73;;;;;;;;;;5147165;27;20131;-61
2022/02/04 05:35:08;;;;;;;32.17;16.88;;;;;;;;;;5146101;27;20039;-61
2022/02/04 05:37:39;;;;;;;31.85;15.82;;;;;;;;;;5159349;27;20060;-61
2022/02/04 05:40:09;;;;;;;30.80;17.17;;;;;;;;;;5152816;27;20164;-61
2022/02/04 05:42:38;;;;;;;33.08;15.38;;;;;;;;;;5161232;27;20068;-61
2022/02/04 05:45:17;;;;;;;26.45;15.93;;;;;;;;;;5149800;27;20049;-62
2022/02/04 05:47:43;;;;;;;30.00;16.77;;;;;;;;;;5147882;27;20047;-62
2022/02/04 05:58:17;;;;;;;32.22;17.27;;;;;;;;;;5162066;27;20050;-62
2022/02/04 06:00:51;;;;;;;24.27;13.98;;;;;;;;;;5145843;27;20050;-62
2022/02/04 06:09:19;;;;;;;35.08;16.70;;;;;;;;;;5146099;27;19926;-62
2022/02/04 06:14:48;;;;;;;28.35;14.00;;;;;;;;;;5146810;27;20046;-62
2022/02/04 06:22:47;;;;;;;28.02;15.23;;;;;;;;;;5145121;27;20050;-62
2022/02/04 06:25:13;;;;;;;30.95;14.40;;;;;;;;;;5145953;27;20076;-62
2022/02/04 06:27:39;;;;;;;28.00;13.80;;;;;;;;;;5145952;27;20193;-62
2022/02/04 06:30:06;;;;;;;34.60;14.82;;;;;;;;;;5145919;27;20050;-62
2022/02/04 06:32:32;;;;;;;23.98;13.80;;;;;;;;;;5161045;27;20039;-62
2022/02/04 06:34:59;;;;;;;23.55;13.65;;;;;;;;;;5167163;27;20047;-62
2022/02/04 06:37:25;;;;;;;26.60;13.98;;;;;;;;;;5165642;27;20464;-62
2022/02/04 06:39:52;;;;;;;26.88;14.35;;;;;;;;;;5165244;27;20107;-62
2022/02/04 06:42:22;;;;;;;27.65;14.18;;;;;;;;;;5166539;27;20125;-62
2022/02/04 06:44:48;;;;;;;27.15;13.93;;;;;;;;;;5166672;27;20058;-62
2022/02/04 06:47:14;;;;;;;24.35;13.10;;;;;;;;;;5165409;27;20439;-62
2022/02/04 06:49:42;;;;;;;27.08;13.02;;;;;;;;;;5166863;27;20039;-62
2022/02/04 06:52:08;;;;;;;25.00;13.02;;;;;;;;;;5165858;27;20099;-62
2022/02/04 06:54:34;;;;;;;25.52;11.48;;;;;;;;;;5166160;27;20035;-62
2022/02/04 06:57:00;;;;;;;20.15;10.68;;;;;;;;;;5164899;27;20550;-62
2022/02/04 06:59:26;;;;;;;25.08;11.68;;;;;;;;;;5166322;27;20042;-62
2022/02/04 07:01:52;;;;;;;17.48;10.18;;;;;;;;;;5163020;27;20049;-62
2022/02/04 07:04:18;;;;;;;20.10;11.50;;;;;;;;;;5166644;27;20043;-62
2022/02/04 07:06:53;;;;;;;24.30;10.73;;;;;;;;;;5165682;27;20085;-62
2022/02/04 07:09:43;;;;;;;22.17;10.98;;;;;;;;;;5165708;27;20050;-62
2022/02/04 07:19:49;;;;;;;22.17;10.23;;;;;;;;;;5145409;27;20107;-62
2022/02/04 07:22:16;;;;;;;21.55;10.80;;;;;;;;;;5144960;27;20043;-62
2022/02/04 07:24:43;;;;;;;25.55;10.60;;;;;;;;;;5144790;28;20078;-62
2022/02/04 07:27:09;;;;;;;22.33;10.80;;;;;;;;;;5157702;27;20049;-62
2022/02/04 07:29:36;;;;;;;24.55;11.85;;;;;;;;;;5165958;27;20079;-62
2022/02/04 07:32:07;;;;;;;25.85;11.32;;;;;;;;;;5165834;27;20039;-62
2022/02/04 07:35:35;;;;;;;22.05;10.60;;;;;;;;;;5165879;27;20058;-62
2022/02/04 07:42:51;;;;;;;22.58;11.57;;;;;;;;;;5165995;27;20076;-62
2022/02/04 07:45:17;;;;;;;20.23;10.05;;;;;;;;;;5165852;27;20070;-62
2022/02/04 07:47:43;;;;;;;18.02;9.32;;;;;;;;;;5165563;27;20047;-62
2022/02/04 07:50:09;;;;;;;19.73;10.25;;;;;;;;;;5164668;27;20117;-61
2022/02/04 07:52:35;;;;;;;17.42;9.95;;;;;;;;;;5165091;27;20474;-62
2022/02/04 07:55:02;;;;;;;15.43;10.43;;;;;;;;;;5154831;27;20061;-62
2022/02/04 07:57:28;;;;;;;23.60;10.98;;;;;;;;;;5144899;27;20043;-62
2022/02/04 08:00:00;;;;;;;16.67;11.00;;;;;;;;;;5147020;27;20047;-62
2022/02/04 08:02:27;;;;;;;17.58;9.57;;;;;;;;;;5147936;27;20042;-62
2022/02/04 08:04:57;;;;;;;20.55;10.85;;;;;;;;;;5148664;27;20043;-62
2022/02/04 08:07:27;;;;;;;16.40;9.48;;;;;;;;;;5148304;27;20267;-62
2022/02/04 08:55:07;;;;;;;9.02;6.13;;;;;;;;;;5082932;28;20045;-63
2022/02/04 08:57:42;;;;;;;10.70;5.93;;;;;;;;;;5082864;28;20058;-61
2022/02/04 09:00:28;;;;;;;11.88;6.10;;;;;;;;;;5085603;28;20072;-62
2022/02/04 09:03:02;;;;;;;13.75;5.65;;;;;;;;;;5089078;28;20055;-62
2022/02/04 09:05:38;;;;;;;8.45;6.18;;;;;;;;;;5082048;28;20044;-62
2022/02/04 09:10:35;;;;;;;10.25;5.57;;;;;;;;;;5082855;28;20146;-62
2022/02/04 09:23:24;;;;;;;8.40;5.63;;;;;;;;;;5145860;27;20135;-62
2022/02/04 09:25:50;;;;;;;10.15;6.25;;;;;;;;;;5146404;27;20047;-62
2022/02/04 09:28:16;;;;;;;9.25;6.65;;;;;;;;;;5138609;27;20469;-62
2022/02/04 09:30:42;;;;;;;14.48;6.10;;;;;;;;;;5147484;27;20047;-62
2022/02/04 09:33:12;;;;;;;8.02;6.35;;;;;;;;;;5151504;27;20138;-62
2022/02/04 09:35:38;;;;;;;11.32;6.95;;;;;;;;;;5144348;27;20047;-62
2022/02/04 09:38:04;;;;;;;10.65;7.63;;;;;;;;;;5145739;27;20039;-62
2022/02/04 09:40:30;;;;;;;13.85;7.20;;;;;;;;;;5147859;27;20043;-62
2022/02/04 09:42:57;;;;;;;13.15;8.02;;;;;;;;;;5145946;27;20058;-62
2022/02/04 09:45:24;;;;;;;10.25;7.93;;;;;;;;;;5145909;27;20076;-62
2022/02/04 09:47:57;;;;;;;14.05;9.07;;;;;;;;;;5155910;27;20043;-62
2022/02/04 09:50:26;;;;;;;13.82;9.02;;;;;;;;;;5165449;27;20060;-62
2022/02/04 10:18:12;;;;;;;15.30;10.13;;;;;;;;;;5141511;27;20047;-70
2022/02/04 10:20:39;;;;;;;16.97;10.30;;;;;;;;;;5140504;27;20035;-67
2022/02/04 10:23:05;;;;;;;15.07;9.65;;;;;;;;;;5144305;27;20035;-68
2022/02/04 10:25:32;;;;;;;21.48;10.52;;;;;;;;;;5144548;27;20141;-69
2022/02/04 10:28:03;;;;;;;14.45;9.30;;;;;;;;;;5145502;27;20039;-72
2022/02/04 10:30:32;;;;;;;17.02;10.13;;;;;;;;;;5142014;27;20465;-68
2022/02/04 10:32:59;;;;;;;11.80;8.80;;;;;;;;;;5142761;27;20043;-68
2022/02/04 10:35:35;;;;;;;15.30;9.77;;;;;;;;;;5136063;27;20035;-68
2022/02/04 10:38:18;;;;;;;15.23;9.40;;;;;;;;;;5146332;27;20035;-67
2022/02/04 10:41:04;;;;;;;15.93;10.43;;;;;;;;;;5150186;27;20050;-69
2022/02/04 10:43:49;;;;;;;11.63;7.82;;;;;;;;;;5132986;27;20031;-64
2022/02/04 10:49:08;;;;;;;15.88;9.38;;;;;;;;;;5146119;27;20114;-62
2022/02/04 11:02:33;;;;;;;15.05;6.57;;;;;;;;;;5140289;27;20492;-69
2022/02/04 11:05:15;;;;;;;10.60;6.72;;;;;;;;;;5145103;27;20039;-62
2022/02/04 11:54:54;;;;;;;8.80;4.85;;;;;;;;;;5088636;28;20103;-63
2022/02/04 11:57:21;;;;;;;6.93;4.32;;;;;;;;;;5096403;28;20523;-66
2022/02/04 11:59:57;;;;;;;8.85;5.05;;;;;;;;;;5102293;28;20036;-71
2022/02/04 12:02:29;;;;;;;8.57;5.28;;;;;;;;;;5089308;28;20040;-68
2022/02/04 12:07:38;;;;;;;8.10;4.25;;;;;;;;;;5100410;28;20044;-68
2022/02/04 12:10:17;;;;;;;6.20;4.53;;;;;;;;;;5106994;28;20056;-65
2022/02/04 12:13:28;;;;;;;8.13;4.07;;;;;;;;;;5079014;28;21648;-58
2022/02/04 12:16:07;;;;;;;8.43;3.90;;;;;;;;;;5102332;28;20125;-64
2022/02/04 12:18:48;;;;;;;7.07;3.80;;;;;;;;;;5101331;28;20079;-63
2022/02/04 12:21:17;;;;;;;8.15;3.80;;;;;;;;;;5087471;28;20052;-64
2022/02/04 12:23:46;;;;;;;5.50;3.10;;;;;;;;;;5139489;27;20062;-63
2022/02/04 12:26:34;;;;;;;5.68;3.30;;;;;;;;;;5146387;27;20062;-64
2022/02/04 12:29:05;;;;;;;7.75;3.08;;;;;;;;;;5161173;27;20090;-65
2022/02/04 12:31:32;;;;;;;11.85;3.83;;;;;;;;;;5148281;27;20102;-64
2022/02/04 12:33:59;;;;;;;12.20;3.53;;;;;;;;;;5138477;27;20089;-64
2022/02/04 12:36:27;;;;;;;5.45;3.88;;;;;;;;;;5137923;27;20043;-68
2022/02/04 12:38:54;;;;;;;6.90;3.30;;;;;;;;;;5146275;27;20070;-68
2022/02/04 12:41:22;;;;;;;7.10;3.05;;;;;;;;;;5142857;27;20046;-67
2022/02/04 12:43:49;;;;;;;7.88;3.17;;;;;;;;;;5142102;27;20046;-65
2022/02/04 12:46:16;;;;;;;10.48;3.92;;;;;;;;;;5146950;27;20076;-65
2022/02/04 12:48:54;;;;;;;5.13;3.30;;;;;;;;;;5142170;27;20039;-64
2022/02/04 12:51:30;;;;;;;7.97;2.88;;;;;;;;;;5149470;27;20469;-64
2022/02/04 12:53:57;;;;;;;5.07;2.95;;;;;;;;;;5149058;27;20103;-64
2022/02/04 12:56:36;;;;;;;5.57;2.53;;;;;;;;;;5147441;27;20115;-64
2022/02/04 12:59:55;;;;;;;11.07;3.72;;;;;;;;;;5149835;27;20062;-63
2022/02/04 13:10:16;;;;;;;3.72;2.53;;;;;;;;;;5146118;27;20503;-64
2022/02/04 13:13:01;;;;;;;8.35;3.08;;;;;;;;;;5148536;27;20573;-65
2022/02/04 13:15:28;;;;;;;3.70;2.63;;;;;;;;;;5147191;27;20054;-64
2022/02/04 13:17:56;;;;;;;6.32;2.80;;;;;;;;;;5146104;27;20038;-62
2022/02/04 13:20:22;;;;;;;7.25;2.13;;;;;;;;;;5146035;27;20047;-62
2022/02/04 13:22:49;;;;;;;8.00;1.02;;;;;;;;;;5147422;27;20479;-63
2022/02/04 13:25:20;;;;;;;5.70;1.00;;;;;;;;;;5145459;27;20051;-66
2022/02/04 13:28:11;;;;;;;3.70;0.80;;;;;;;;;;5145072;27;20046;-67
2022/02/04 13:30:39;;;;;;;6.07;0.90;;;;;;;;;;5146332;27;20055;-66
2022/02/04 13:33:15;;;;;;;3.33;1.00;;;;;;;;;;5145338;27;20035;-65
2022/02/04 13:35:42;;;;;;;2.80;0.70;;;;;;;;;;5138803;27;20058;-68
2022/02/04 13:38:26;;;;;;;2.97;1.00;;;;;;;;;;5142259;27;20039;-69
2022/02/04 13:41:02;;;;;;;4.10;0.70;;;;;;;;;;5141954;27;20043;-71
2022/02/04 13:44:22;;;;;;;2.33;0.70;;;;;;;;;;5138383;27;20039;-68
2022/02/04 13:46:24;;;;;;;1.95;0.50;;;;;;;;;;5139065;27;20055;-68
2022/02/04 13:49:00;;;;;;;2.88;0.47;;;;;;;;;;5146157;27;20058;-68
2022/02/04 13:51:44;;;;;;;1.17;0.50;;;;;;;;;;5146475;27;20049;-66
2022/02/04 13:54:23;;;;;;;1.70;0.60;;;;;;;;;;5136615;27;20047;-67
2022/02/04 13:56:59;;;;;;;1.55;0.43;;;;;;;;;;5143648;27;20035;-68
2022/02/04 13:59:57;;;;;;;2.03;0.60;;;;;;;;;;5143927;27;20046;-67
2022/02/04 14:02:26;;;;;;;4.93;0.55;;;;;;;;;;5145868;27;20479;-68
2022/02/04 14:04:54;;;;;;;7.70;0.90;;;;;;;;;;5144626;27;20043;-66
2022/02/04 14:07:23;;;;;;;3.80;0.85;;;;;;;;;;5140010;27;20127;-67
2022/02/04 14:09:57;;;;;;;1.63;0.50;;;;;;;;;;5144898;27;20502;-67
2022/02/04 14:12:23;;;;;;;4.22;0.50;;;;;;;;;;5144679;27;20047;-65
2022/02/04 14:14:57;;;;;;;3.33;0.40;;;;;;;;;;5145589;27;20590;-68
2022/02/04 14:17:28;;;;;;;1.45;0.40;;;;;;;;;;5132450;27;20039;-68
2022/02/04 14:19:54;;;;;;;5.63;0.45;;;;;;;;;;5143526;27;20122;-68
2022/02/04 14:22:21;;;;;;;3.00;0.60;;;;;;;;;;5149601;27;20132;-65
2022/02/04 14:24:48;;;;;;;5.82;0.98;;;;;;;;;;5145390;27;20060;-66
2022/02/04 14:27:14;;;;;;;1.02;0.50;;;;;;;;;;5147372;27;20066;-69
2022/02/04 14:29:57;;;;;;;5.70;0.60;;;;;;;;;;5144068;27;20331;-70
2022/02/04 14:32:28;;;;;;;3.95;0.50;;;;;;;;;;5138071;27;20066;-68
2022/02/04 14:53:46;;;;;;;1.20;0.50;;;;;;;;;;5145189;27;20047;-66
2022/02/04 15:01:58;;;;;;;5.90;0.85;;;;;;;;;;5097837;28;20543;-65
2022/02/04 15:04:47;;;;;;;6.43;0.73;;;;;;;;;;5100828;28;20118;-65
2022/02/04 15:07:14;;;;;;;3.53;0.70;;;;;;;;;;5101445;28;20052;-66
2022/02/04 15:09:49;;;;;;;1.33;0.43;;;;;;;;;;5100182;28;20051;-66
2022/02/04 15:12:15;;;;;;;5.18;0.68;;;;;;;;;;5091508;28;20058;-66
2022/02/04 15:14:41;;;;;;;7.78;0.73;;;;;;;;;;5106119;28;20088;-65
2022/02/04 15:17:08;;;;;;;5.13;0.50;;;;;;;;;;5101341;28;20048;-65
2022/02/04 15:19:36;;;;;;;2.92;0.75;;;;;;;;;;5082516;28;20044;-64
2022/02/04 15:22:06;;;;;;;2.63;0.82;;;;;;;;;;5096203;28;20052;-63
2022/02/04 15:24:32;;;;;;;0.63;0.50;;;;;;;;;;5095736;28;20141;-61
2022/02/04 15:27:00;;;;;;;6.35;1.02;;;;;;;;;;5089893;28;20105;-61
2022/02/04 15:29:26;;;;;;;7.97;0.77;;;;;;;;;;5100543;28;20123;-76
2022/02/04 15:31:58;;;;;;;4.18;0.60;;;;;;;;;;5100371;28;20142;-69
2022/02/04 15:34:25;;;;;;;3.88;0.60;;;;;;;;;;5102662;28;20484;-70
2022/02/04 15:36:51;;;;;;;5.93;1.00;;;;;;;;;;5126929;28;20059;-69
2022/02/04 15:39:19;;;;;;;6.78;0.88;;;;;;;;;;5136134;27;20050;-71
2022/02/04 15:41:53;;;;;;;7.00;1.27;;;;;;;;;;5140404;27;20039;-68
2022/02/04 15:55:23;;;;;;;6.30;1.02;;;;;;;;;;5135797;27;20529;-67
2022/02/04 15:57:49;;;;;;;6.75;1.00;;;;;;;;;;5141416;27;20047;-69
2022/02/04 16:05:29;;;;;;;7.18;1.08;;;;;;;;;;5139613;27;20046;-68
2022/02/04 16:07:56;;;;;;;9.55;1.00;;;;;;;;;;5143310;27;20043;-76
2022/02/04 16:15:32;;;;;;;11.05;1.67;;;;;;;;;;5141751;27;20047;-68
2022/02/04 16:18:02;;;;;;;7.10;1.52;;;;;;;;;;5138956;27;20047;-69
2022/02/04 16:21:20;;;;;;;7.28;1.17;;;;;;;;;;5144380;27;20051;-67
2022/02/04 16:24:00;;;;;;;4.40;1.25;;;;;;;;;;5134260;27;20039;-67
2022/02/04 16:28:52;;;;;;;11.38;1.55;;;;;;;;;;5128270;28;20111;-65
2022/02/04 16:31:19;;;;;;;15.32;1.10;;;;;;;;;;5137868;27;20051;-65
2022/02/04 16:33:47;;;;;;;7.13;1.25;;;;;;;;;;5148553;27;20058;-66
2022/02/04 16:36:17;;;;;;;;;;;;;;;;;;5147905;27;20050;-65
2022/02/04 16:38:46;;;;;;;3.10;0.82;;;;;;;;;;5140947;27;22984;-71
2022/02/04 16:41:15;;;;;;;5.82;1.30;;;;;;;;;;5142845;27;20046;-70
2022/02/04 16:43:41;;;;;;;8.48;1.23;;;;;;;;;;5146988;27;20039;-70
2022/02/04 16:46:08;;;;;;;7.07;1.58;;;;;;;;;;5150840;27;20039;-64
2022/02/04 16:48:34;;;;;;;6.43;0.90;;;;;;;;;;5142646;27;20039;-63
2022/02/04 16:51:01;;;;;;;9.98;1.73;;;;;;;;;;5141771;27;20097;-64
2022/02/04 16:53:27;;;;;;;11.85;1.60;;;;;;;;;;5151126;27;20067;-64
2022/02/04 16:55:54;;;;;;;5.63;1.27;;;;;;;;;;5149895;27;20050;-69
2022/02/04 16:58:21;;;;;;;8.57;1.27;;;;;;;;;;5141052;27;20080;-71
2022/02/04 17:00:47;;;;;;;9.13;1.60;;;;;;;;;;5136618;27;20078;-61
2022/02/04 17:03:13;;;;;;;9.15;1.27;;;;;;;;;;5148187;27;20110;-61
2022/02/04 17:08:08;;;;;;;12.10;1.77;;;;;;;;;;5143373;27;20054;-63
2022/02/04 17:10:38;;;;;;;10.43;1.52;;;;;;;;;;5150183;27;20047;-63
2022/02/04 17:13:04;;;;;;;5.97;1.63;;;;;;;;;;5148302;27;20077;-63
2022/02/04 17:15:35;;;;;;;14.25;1.88;;;;;;;;;;5141051;27;20073;-70
2022/02/04 17:18:02;;;;;;;7.95;1.10;;;;;;;;;;5156412;27;20046;-70
2022/02/04 17:20:29;;;;;;;4.70;1.52;;;;;;;;;;5150788;27;20121;-70
2022/02/04 17:22:55;;;;;;;4.32;1.23;;;;;;;;;;5152769;27;20103;-70
2022/02/04 17:25:29;;;;;;;4.38;1.48;;;;;;;;;;5149408;27;20049;-70
2022/02/04 17:27:56;;;;;;;10.55;1.52;;;;;;;;;;5151271;27;20116;-70
2022/02/04 17:30:22;;;;;;;3.97;0.95;;;;;;;;;;5149590;27;20096;-70
2022/02/04 17:32:49;;;;;;;12.00;1.67;;;;;;;;;;5148717;27;20102;-70
2022/02/04 17:35:16;;;;;;;5.87;2.03;;;;;;;;;;5149840;27;20512;-70
2022/02/04 17:37:43;;;;;;;12.52;1.73;;;;;;;;;;5145926;27;20046;-70
2022/02/04 17:40:10;;;;;;;4.88;1.83;;;;;;;;;;5151027;27;20107;-70
2022/02/04 17:42:39;;;;;;;20.40;1.95;;;;;;;;;;5146583;27;20065;-70
2022/02/04 17:45:09;;;;;;;6.25;1.48;;;;;;;;;;5143198;27;20039;-70
2022/02/04 17:47:35;;;;;;;12.23;1.63;;;;;;;;;;5144704;27;20046;-70
2022/02/04 17:50:07;;;;;;;7.72;1.60;;;;;;;;;;5146889;27;20111;-70
2022/02/04 17:52:42;;;;;;;6.70;1.48;;;;;;;;;;5129028;27;20178;-70
2022/02/04 17:55:19;;;;;;;13.73;2.30;;;;;;;;;;5145747;27;20052;-70
2022/02/04 17:57:55;;;;;;;13.27;2.10;;;;;;;;;;5151966;27;20052;-70
2022/02/04 18:08:09;;;;;;;9.95;2.17;;;;;;;;;;5151344;27;20046;-68
2022/02/04 18:10:35;;;;;;;7.60;1.48;;;;;;;;;;5144046;27;20039;-64
2022/02/04 18:13:02;;;;;;;7.45;1.88;;;;;;;;;;5152762;27;20166;-61
2022/02/04 18:15:28;;;;;;;11.38;1.38;;;;;;;;;;5150618;27;20035;-66
2022/02/04 18:17:55;;;;;;;20.83;3.05;;;;;;;;;;5145091;27;20042;-63
2022/02/04 18:20:21;;;;;;;8.50;2.55;;;;;;;;;;5146777;27;20054;-64
2022/02/04 18:22:49;;;;;;;18.73;3.55;;;;;;;;;;5145056;27;20047;-65
2022/02/04 18:25:16;;;;;;;12.77;2.13;;;;;;;;;;5151878;27;20046;-65
2022/02/04 18:27:46;;;;;;;8.98;2.08;;;;;;;;;;5150129;27;20043;-65
2022/02/04 18:30:14;;;;;;;12.75;1.95;;;;;;;;;;5156489;27;20050;-65
2022/02/04 18:32:45;;;;;;;14.30;2.55;;;;;;;;;;5147196;27;20072;-65
2022/02/04 18:35:11;;;;;;;16.70;2.35;;;;;;;;;;5147135;27;20046;-64
2022/02/04 18:37:41;;;;;;;7.82;2.10;;;;;;;;;;5146649;27;20067;-64
2022/02/04 18:45:45;;;;;;;16.92;3.47;;;;;;;;;;5143315;27;20085;-65
2022/02/04 18:48:18;;;;;;;12.35;3.17;;;;;;;;;;5151088;27;20034;-68
2022/02/04 18:58:35;;;;;;;7.35;2.00;;;;;;;;;;5144846;27;20047;-69
2022/02/04 19:01:01;;;;;;;16.10;2.17;;;;;;;;;;5144115;27;20043;-66
2022/02/04 19:03:45;;;;;;;5.90;1.30;;;;;;;;;;5145357;27;20091;-62
2022/02/04 19:06:20;;;;;;;7.78;1.33;;;;;;;;;;5141372;27;20043;-70
2022/02/04 19:08:58;;;;;;;9.65;1.33;;;;;;;;;;5146765;27;20111;-65
2022/02/04 19:11:44;;;;;;;4.90;1.75;;;;;;;;;;5144955;27;20043;-63
2022/02/04 19:14:19;;;;;;;6.40;1.88;;;;;;;;;;5145910;27;20495;-68
2022/02/04 19:19:23;;;;;;;8.38;1.52;;;;;;;;;;5142839;27;20075;-68
2022/02/04 19:21:58;;;;;;;18.58;2.35;;;;;;;;;;5140155;27;20047;-67
2022/02/04 19:24:28;;;;;;;11.20;1.83;;;;;;;;;;5150560;27;20135;-69
2022/02/04 19:26:54;;;;;;;10.20;2.00;;;;;;;;;;5140364;27;20047;-66
2022/02/04 19:29:23;;;;;;;14.20;3.17;;;;;;;;;;5144788;28;20126;-70
2022/02/04 19:31:52;;;;;;;13.82;2.15;;;;;;;;;;5148393;27;20126;-69
2022/02/04 19:34:19;;;;;;;11.50;1.77;;;;;;;;;;5139476;27;20039;-72
2022/02/04 19:36:52;;;;;;;19.48;2.90;;;;;;;;;;5133432;27;20039;-71
2022/02/04 19:39:20;;;;;;;11.65;2.40;;;;;;;;;;5140895;27;20050;-71
2022/02/04 19:41:57;;;;;;;15.32;1.70;;;;;;;;;;5140113;27;20035;-75
2022/02/04 19:44:23;;;;;;;14.77;2.70;;;;;;;;;;5138947;27;20114;-69
2022/02/04 19:46:54;;;;;;;15.20;2.13;;;;;;;;;;5143695;27;20039;-68
2022/02/04 19:49:24;;;;;;;23.70;2.92;;;;;;;;;;5138853;27;20068;-68
2022/02/04 19:52:11;;;;;;;17.95;3.35;;;;;;;;;;5134179;27;20074;-66
2022/02/04 20:25:00;;;;;;;26.85;3.78;;;;;;;;;;5038043;28;20053;-66
2022/02/04 20:27:27;;;;;;;16.30;3.38;;;;;;;;;;5040769;28;20080;-66
2022/02/04 20:29:53;;;;;;;24.40;3.40;;;;;;;;;;5021877;28;20077;-66
2022/02/04 20:32:20;;;;;;;22.25;3.17;;;;;;;;;;5077855;28;20056;-66
2022/02/04 20:34:46;;;;;;;17.55;2.72;;;;;;;;;;5072957;28;20041;-65
2022/02/04 20:37:12;;;;;;;21.13;3.03;;;;;;;;;;5082725;28;20074;-66
2022/02/04 20:39:49;;;;;;;22.08;3.78;;;;;;;;;;5082214;28;20053;-65
2022/02/04 20:42:17;;;;;;;15.43;2.85;;;;;;;;;;5078819;28;20052;-65
2022/02/04 20:44:43;;;;;;;;;;;;;;;;;;5084042;28;20057;-66
2022/02/04 20:47:09;;;;;;;14.85;4.05;;;;;;;;;;5069211;28;19920;-66
2022/02/04 20:49:35;;;;;;;13.07;2.92;;;;;;;;;;5077680;28;20057;-67
2022/02/04 20:52:01;;;;;;;28.73;3.65;;;;;;;;;;5068958;28;20532;-67
2022/02/04 20:54:28;;;;;;;24.15;3.53;;;;;;;;;;5063861;28;20041;-67
2022/02/04 20:56:54;;;;;;;16.25;3.10;;;;;;;;;;5122226;27;20066;-66
2022/02/04 20:59:20;;;;;;;18.52;3.25;;;;;;;;;;5145736;27;20035;-67
2022/02/04 21:01:47;;;;;;;16.52;2.90;;;;;;;;;;5147085;27;20068;-67
2022/02/04 21:04:13;;;;;;;19.90;3.45;;;;;;;;;;5146698;27;20039;-66
2022/02/04 21:06:48;;;;;;;14.52;3.38;;;;;;;;;;5146658;27;20125;-67
2022/02/04 21:10:04;;;;;;;18.60;5.20;;;;;;;;;;5147071;27;20102;-66
2022/02/04 21:15:07;;;;;;;15.15;2.83;;;;;;;;;;5131503;27;20437;-66
2022/02/04 21:17:39;;;;;;;18.55;4.05;;;;;;;;;;5142369;27;20051;-67
2022/02/04 21:20:06;;;;;;;16.17;3.38;;;;;;;;;;5145497;27;20166;-67
2022/02/04 21:22:32;;;;;;;17.53;4.87;;;;;;;;;;5145435;27;20097;-67
2022/02/04 21:24:58;;;;;;;20.38;4.10;;;;;;;;;;5145114;27;20338;-67
2022/02/04 21:27:24;;;;;;;31.42;5.05;;;;;;;;;;5146237;27;20047;-67
2022/02/04 21:29:51;;;;;;;33.53;4.45;;;;;;;;;;5146157;27;20050;-66
2022/02/04 21:32:17;;;;;;;23.35;5.68;;;;;;;;;;5145428;27;20506;-66
2022/02/04 21:37:27;;;;;;;22.15;4.25;;;;;;;;;;5143914;27;20096;-66
2022/02/04 21:39:53;;;;;;;18.52;5.03;;;;;;;;;;5144828;27;20114;-67
2022/02/04 21:42:21;;;;;;;26.65;4.03;;;;;;;;;;5146313;27;20615;-66
2022/02/04 21:44:47;;;;;;;24.80;4.00;;;;;;;;;;5138916;27;20047;-66
2022/02/04 21:47:24;;;;;;;15.43;4.95;;;;;;;;;;5143932;27;20494;-67
2022/02/04 21:49:50;;;;;;;20.23;3.97;;;;;;;;;;5146659;27;20047;-66
2022/02/04 21:52:17;;;;;;;18.35;3.42;;;;;;;;;;5145597;27;20065;-68
2022/02/04 21:54:44;;;;;;;10.93;3.30;;;;;;;;;;5141961;27;20112;-68
2022/02/04 21:57:11;;;;;;;16.88;3.20;;;;;;;;;;5139411;27;20494;-67
2022/02/04 21:59:37;;;;;;;14.95;2.72;;;;;;;;;;5140247;27;20102;-67
2022/02/04 22:02:04;;;;;;;12.57;2.10;;;;;;;;;;5140841;27;20146;-67
2022/02/04 22:04:31;;;;;;;11.60;2.20;;;;;;;;;;5137007;27;20502;-67
2022/02/04 22:06:57;;;;;;;11.75;2.47;;;;;;;;;;5139220;27;20099;-67
2022/02/04 22:09:35;;;;;;;12.65;3.17;;;;;;;;;;5139398;27;20043;-66
2022/02/04 22:14:56;;;;;;;14.63;2.33;;;;;;;;;;5145545;27;20077;-67
2022/02/04 22:17:56;;;;;;;15.85;1.95;;;;;;;;;;5145237;27;20054;-68
2022/02/04 22:23:07;;;;;;;15.88;2.60;;;;;;;;;;5150479;27;20049;-69
2022/02/04 22:25:33;;;;;;;15.23;2.33;;;;;;;;;;5140666;27;20081;-72
2022/02/04 22:28:00;;;;;;;12.88;2.75;;;;;;;;;;5144618;27;20091;-70